Season   Series   Competition
Home   >  Results
ISU World Junior Short Track Speed Skating Championships 2017

Distance Classification

ISU World Junior Short Track Speed Skating Championships 2017 - 500 m - Men

RoundRankNameISU MemberQHeat PlacePlacementsResult
Final A 1 Shaoang LIU HUN 1 1-1-1 0:40.483
2 Thomas Insuk HONG USA 2 1-1-1 0:40.601
3 Kazuki YOSHINAGA JPN 3 2-2-1 0:40.657
4 PARK Noh Won KOR 4 2-1-2 0:40.814
Final B 5 Quentin FERCOQ FRA 1 3-1-1 0:41.011
6 Marco Fritz SCHUMANN CAN 2 3-2-2 0:41.921
7 Jack BURROWS GBR 3 4-2-3 0:41.958
Semifinals 8 Pavel SITNIKOV RUS 2-2 0:40.728
Quarterfinals 9 Marc-Olivier LEMAY CAN 3 1 0:41.815
10 Artem DERKACH RUS 3 2 0:41.307
11 Yerkebulan SHAMUKHANOV KAZ 3 2 0:42.080
12 Katsunori KOIKE JPN 3 2 0:42.370
13 Kiichi SHIGEHIRO JPN 4 2 0:41.520
14 Andras SZIKLASI HUN 4 2 0:42.280
15 WANG Haotian CHN 4 3 0:41.910
16 Roberts ZVEJNIEKS LAT 4 4 0:41.425
17 KIM Si Un KOR 5 1 0:42.167
18 Yevgeniy REBIK KAZ 5 3 0:42.442
19 Cyprien VACHERON FRA 5 3 0:41.882
20 Gibson Laurent HIMBEAULT CAN 5 4 0:42.885
21 WANG Pengyu CHN 6 1 0:41.868
22 JIA Haidong CHN 1 0:42.006
Heats 23 MOON Won Jun KOR 3 0:42.357
24 Karlis KRUZBERGS LAT 3 0:43.051
25 Clement FLORAC FRA 3 0:42.455
26 Stijn DESMET BEL 3 0:43.507
27 Bram STEENAART NED 4 0:42.048
28 Mark CHONG ITA 4 0:42.698
29 Nico ANDERMANN AUT 4 0:42.849
30 Sean McANUFF IRL 4 0:43.347
31 Denali BLUNDEN AUS 4 0:45.175
32 Friso EMONS NED 4 0:43.152
33 Ivan RADEVIC GER 5 0:43.428
34 Tunay SIMSEK TUR 5 0:44.343
35 Rafal ANIKEJ POL 5 0:41.933
36 Keanu BLUNDEN AUS 5 0:42.265
37 Augustin GERE LUX 5 0:44.998
38 Peter MURPHY LUX 6 0:43.851
39 Alexander SHULGINOV RUS 0:41.549
40 Jacob JANSSON SWE 0:42.404
41 Lorenzo MORRONE ITA 0:42.576
Ranking Finals 42 Jasper BRUNSMANN NED 1 0:42.827
43 Zachary BIGGS NZL 2 0:42.891
44 Luca LOEFFLER GER 3 0:42.964
45 Benjamin THORNOCK USA 4 0:42.952
46 Jason CLAGUE NZL 1 0:43.174
47 Adrian LUEDTKE GER 2 0:43.531
48 SU Jun-Peng TPE 3 0:43.685
49 Vladislav MIKHAILOV BLR 4 0:43.654
50 Adil GALIAKHMETOV KAZ 1 0:43.646
51 Adam TIMAR ROU 2 0:43.735
52 Pietro MARINELLI ITA 3 0:43.756
53 Oleh HANDEI UKR 4 0:44.240
54 Brandon KIM USA 1 0:43.169
55 Tamas ANTAL ROU 2 0:43.125
56 Tarik OMERAGIC BIH 3 0:45.697
57 TSANG Kei Wing Kelvin HKG 4 0:45.763
58 Roberts KRUZBERGS LAT 1 0:43.239
59 LIN Xian-You TPE 2 0:43.317
60 Nikita NEMIRO UKR 3 0:43.576
61 Davut TAHTACI TUR 4 0:44.028
62 Attila SZASZ ROU 1 0:43.512
63 Bartosz BIELECKI POL 2 0:43.524
64 Guillian van WAASDIJK BEL 3 0:43.952
65 Daniel TIBORCZ HUN 4 0:44.061
66 Hazar KARAGOL TUR 1 0:44.899
67 Oliver RINGER SVK 2 0:44.897
68 Michal CUJA SVK 3 0:44.909
69 David DANNEEL BEL 4 0:44.860
70 Krystian GISZKA POL 1 0:44.335
71 CHU Sidney K HKG 2 0:44.371
72 Khairil Ridhwan KHALIL MAS 3 0:47.967
73 Jan POSAVEC CRO 4 0:50.316
74 Lovro ZGOZNIK SLO 5 0:51.098
75 LIN Chun-Chieh TPE 1 0:43.851
76 Ethan de ROSE NZL 2 0:44.043
77 Bor Luka URLEP SLO 3 0:44.183
78 Stephane BARBERA PERALEDA ESP 4 0:46.723
79 Kaloyan ANGELOV BUL 5 0:46.932
80 Jovan DJORDJEVIC SRB 1 0:46.738
81 Heinrich LIU AUT 2 0:47.282
82 Ashwin Calen DSILVA IND 3 0:47.475
83 Stribor SUMAN CRO 4 0:47.794
84 Mak KRSTIC BIH 5 0:49.671
85 Georgi ORLOV BLR 1 0:44.558
86 Liam O'BRIEN AUS 2 0:45.114
87 Rafael HEREDIA-BARBA ESP 3 0:45.606
88 Hazim SHAHRUM MAS 4 0:47.372
89 Kaviraj Prithvi COIMBATORE ASHOK IND 5 0:50.424
90 Ariff Rasydan MOHAMAD FADZLI MAS 0:47.456
Preliminaries Georgi TSVETKOV BUL PEN
Jonathan MOODY GBR PEN
Salvijus RAMANAUSKAS LTU DNF
Ivan LAHIMAKHAY BLR PEN
Volodymyr HANDEI UKR PEN